createdAt,value
2023-07-25T00:00:39.169Z,5.50
2023-07-25T00:01:39.278Z,6.10
2023-07-25T00:02:39.192Z,5.50
2023-07-25T00:03:39.331Z,5.40
2023-07-25T00:04:39.158Z,5.90
2023-07-25T00:05:39.156Z,5.90
2023-07-25T00:06:39.152Z,6.00
2023-07-25T00:07:39.132Z,5.50
2023-07-25T00:08:39.122Z,5.50
2023-07-25T00:09:39.162Z,5.70
2023-07-25T00:10:39.091Z,5.50
2023-07-25T00:11:39.098Z,5.70
2023-07-25T00:12:39.071Z,5.20
2023-07-25T00:13:39.097Z,5.10
2023-07-25T00:14:39.049Z,4.80
2023-07-25T00:15:39.104Z,4.70
2023-07-25T00:16:39.069Z,4.40
2023-07-25T00:17:39.093Z,4.70
2023-07-25T00:18:39.131Z,4.60
2023-07-25T00:19:39.019Z,4.80
2023-07-25T00:20:39.021Z,5.10
2023-07-25T00:21:39.079Z,5.10
2023-07-25T00:22:39.022Z,4.90
2023-07-25T00:23:39.142Z,6.20
2023-07-25T00:24:39.090Z,5.70
2023-07-25T00:25:39.146Z,5.90
2023-07-25T00:26:38.995Z,5.60
2023-07-25T00:27:39.038Z,5.40
2023-07-25T00:28:38.934Z,5.70
2023-07-25T00:29:38.964Z,5.40
2023-07-25T00:30:38.934Z,5.90
2023-07-25T00:31:38.964Z,5.50
2023-07-25T00:32:39.094Z,5.00
2023-07-25T00:33:38.903Z,5.20
2023-07-25T00:34:38.875Z,5.40
2023-07-25T00:35:38.875Z,5.70
2023-07-25T00:36:38.868Z,5.80
2023-07-25T00:37:38.852Z,5.50
2023-07-25T00:38:38.912Z,5.80
2023-07-25T00:39:38.847Z,5.80
2023-07-25T00:40:38.889Z,5.90
2023-07-25T00:41:38.815Z,6.00
2023-07-25T00:42:38.821Z,5.50
2023-07-25T00:43:38.822Z,5.80
2023-07-25T00:44:38.887Z,6.00
2023-07-25T00:45:38.799Z,6.10
2023-07-25T00:46:38.797Z,6.90
2023-07-25T00:47:38.856Z,6.40
2023-07-25T00:48:38.812Z,6.20
2023-07-25T00:49:38.789Z,6.10
2023-07-25T00:50:38.805Z,6.10
2023-07-25T00:51:38.746Z,5.70
2023-07-25T00:52:38.744Z,6.50
2023-07-25T00:53:38.726Z,6.40
2023-07-25T00:54:38.712Z,6.40
2023-07-25T00:55:38.751Z,6.30
2023-07-25T00:56:38.732Z,5.90
2023-07-25T00:57:38.725Z,6.20
2023-07-25T00:58:38.685Z,6.00
2023-07-25T00:59:38.665Z,6.30
2023-07-25T01:00:38.716Z,6.30
2023-07-25T01:01:38.757Z,6.10
2023-07-25T01:02:38.707Z,6.40
2023-07-25T01:03:38.725Z,6.30
2023-07-25T01:04:38.631Z,6.50
2023-07-25T01:05:38.602Z,6.60
2023-07-25T01:06:38.676Z,6.80
2023-07-25T01:07:38.619Z,6.70
2023-07-25T01:08:38.640Z,6.80
2023-07-25T01:09:38.572Z,7.00
2023-07-25T01:10:38.579Z,7.30
2023-07-25T01:11:38.560Z,7.30
2023-07-25T01:12:38.571Z,7.20
2023-07-25T01:13:38.600Z,7.10
2023-07-25T01:14:38.565Z,6.70
2023-07-25T01:15:38.541Z,6.20
2023-07-25T01:16:38.544Z,6.80
2023-07-25T01:17:38.562Z,7.00
2023-07-25T01:18:38.518Z,7.40
2023-07-25T01:19:38.538Z,7.60
2023-07-25T01:20:38.487Z,7.40
2023-07-25T01:21:38.534Z,7.70
2023-07-25T01:22:38.543Z,7.60
2023-07-25T01:23:38.464Z,7.40
2023-07-25T01:24:38.499Z,7.60
2023-07-25T01:25:38.494Z,7.00
2023-07-25T01:26:38.431Z,7.10
2023-07-25T01:27:38.493Z,7.00
2023-07-25T01:28:38.428Z,7.10
2023-07-25T01:29:38.479Z,7.30
2023-07-25T01:30:38.408Z,7.30
2023-07-25T01:31:38.415Z,6.90
2023-07-25T01:32:38.397Z,7.20
2023-07-25T01:33:38.504Z,7.30
2023-07-25T01:34:38.383Z,6.60
2023-07-25T01:35:38.419Z,7.30
2023-07-25T01:36:38.392Z,7.10
2023-07-25T01:37:38.348Z,8.60
2023-07-25T01:38:38.336Z,7.80
2023-07-25T01:39:38.318Z,8.20
2023-07-25T01:40:38.329Z,8.10
2023-07-25T01:41:38.385Z,8.00
2023-07-25T01:42:38.872Z,8.80
2023-07-25T01:43:38.282Z,8.10
2023-07-25T01:44:38.315Z,8.70
2023-07-25T01:45:38.372Z,8.70
2023-07-25T01:46:38.257Z,8.90
2023-07-25T01:47:38.269Z,9.40
2023-07-25T01:48:38.317Z,9.40
2023-07-25T01:49:38.232Z,10.20
2023-07-25T01:50:38.253Z,9.50
2023-07-25T01:51:38.223Z,8.60
2023-07-25T01:52:38.217Z,9.20
2023-07-25T01:53:38.225Z,10.10
2023-07-25T01:54:38.305Z,9.00
2023-07-25T01:55:38.198Z,8.60
2023-07-25T01:56:38.200Z,9.30
2023-07-25T01:57:38.194Z,9.00
2023-07-25T01:58:38.176Z,9.40
2023-07-25T01:59:38.143Z,8.90
2023-07-25T02:00:38.183Z,9.50
2023-07-25T02:01:38.192Z,9.10
2023-07-25T02:02:38.193Z,9.50
2023-07-25T02:03:38.118Z,10.30
2023-07-25T02:04:38.140Z,9.40
2023-07-25T02:05:38.086Z,9.40
2023-07-25T02:06:38.227Z,9.50
2023-07-25T02:07:38.150Z,10.40
2023-07-25T02:08:38.155Z,9.60
2023-07-25T02:09:38.068Z,9.10
2023-07-25T02:10:38.091Z,9.50
2023-07-25T02:11:38.077Z,10.30
2023-07-25T02:12:38.079Z,9.20
2023-07-25T02:13:38.080Z,8.80
2023-07-25T02:14:38.077Z,9.40
2023-07-25T02:15:38.011Z,9.60
2023-07-25T02:16:38.187Z,9.70
2023-07-25T02:17:38.139Z,9.90
2023-07-25T02:18:37.995Z,10.10
2023-07-25T02:19:37.976Z,9.50
2023-07-25T02:20:38.355Z,9.30
2023-07-25T02:21:37.962Z,9.00
2023-07-25T02:22:38.161Z,9.20
2023-07-25T02:23:37.954Z,9.50
2023-07-25T02:24:38.001Z,9.60
2023-07-25T02:25:37.954Z,9.20
2023-07-25T02:26:37.985Z,9.90
2023-07-25T02:27:37.921Z,10.20
2023-07-25T02:28:37.926Z,10.50
2023-07-25T02:29:37.892Z,9.70
2023-07-25T02:30:37.958Z,9.80
2023-07-25T02:31:38.000Z,9.90
2023-07-25T02:32:37.925Z,9.50
2023-07-25T02:33:37.862Z,9.50
2023-07-25T02:34:37.855Z,9.80
2023-07-25T02:35:37.871Z,9.00
2023-07-25T02:36:37.891Z,9.40
2023-07-25T02:37:37.958Z,9.20
2023-07-25T02:38:37.894Z,8.80
2023-07-25T02:39:37.872Z,8.20
2023-07-25T02:40:37.845Z,8.00
2023-07-25T02:41:37.796Z,8.40
2023-07-25T02:42:37.806Z,9.90
2023-07-25T02:43:37.867Z,9.30
2023-07-25T02:44:37.822Z,9.10
2023-07-25T02:45:37.793Z,9.70
2023-07-25T02:46:37.790Z,9.60
2023-07-25T02:47:37.810Z,10.30
2023-07-25T02:48:37.764Z,10.20
2023-07-25T02:49:37.835Z,9.00
2023-07-25T02:50:37.794Z,10.00
2023-07-25T02:51:37.720Z,9.70
2023-07-25T02:52:37.802Z,8.40
2023-07-25T02:53:37.706Z,8.80
2023-07-25T02:54:37.741Z,9.00
2023-07-25T02:55:37.695Z,9.40
2023-07-25T02:56:37.736Z,10.70
2023-07-25T02:57:37.726Z,10.30
2023-07-25T02:58:37.694Z,10.50
2023-07-25T02:59:37.646Z,10.10
2023-07-25T03:00:37.679Z,10.50
2023-07-25T03:01:37.677Z,9.30
2023-07-25T03:02:37.701Z,9.70
2023-07-25T03:03:37.695Z,9.60
2023-07-25T03:04:37.708Z,10.10
2023-07-25T03:05:37.636Z,11.00
2023-07-25T03:06:37.628Z,10.50
2023-07-25T03:07:37.588Z,10.20
2023-07-25T03:08:37.671Z,8.50
2023-07-25T03:09:37.599Z,9.70
2023-07-25T03:10:37.588Z,10.70
2023-07-25T03:11:37.553Z,10.00
2023-07-25T03:12:37.587Z,10.10
2023-07-25T03:13:38.018Z,10.50
2023-07-25T03:14:37.599Z,9.90
2023-07-25T03:15:37.597Z,9.70
2023-07-25T03:16:37.528Z,10.40
2023-07-25T03:17:37.532Z,10.40
2023-07-25T03:18:37.547Z,9.50
2023-07-25T03:19:37.486Z,10.00
2023-07-25T03:20:37.482Z,9.60
2023-07-25T03:21:37.486Z,9.30
2023-07-25T03:22:37.470Z,10.70
2023-07-25T03:23:37.454Z,11.50
2023-07-25T03:24:37.559Z,11.20
2023-07-25T03:25:37.448Z,10.90
2023-07-25T03:26:37.433Z,11.60
2023-07-25T03:27:37.435Z,12.20
2023-07-25T03:28:37.549Z,12.00
2023-07-25T03:29:37.441Z,11.10
2023-07-25T03:30:37.489Z,11.00
2023-07-25T03:31:37.381Z,11.60
2023-07-25T03:32:37.454Z,11.90
2023-07-25T03:33:37.429Z,12.00
2023-07-25T03:34:37.373Z,11.70
2023-07-25T03:35:37.364Z,12.60
2023-07-25T03:36:37.378Z,12.90
2023-07-25T03:37:37.354Z,12.20
2023-07-25T03:38:37.391Z,11.50
2023-07-25T03:39:37.378Z,12.90
2023-07-25T03:40:37.412Z,11.30
2023-07-25T03:41:37.320Z,12.30
2023-07-25T03:42:37.406Z,13.40
2023-07-25T03:43:37.362Z,11.20
2023-07-25T03:44:37.406Z,12.80
2023-07-25T03:45:37.368Z,12.10
2023-07-25T03:46:37.413Z,12.00
2023-07-25T03:47:37.500Z,12.00
2023-07-25T03:48:37.378Z,12.70
2023-07-25T03:49:37.310Z,12.00
2023-07-25T03:50:37.237Z,11.90
2023-07-25T03:51:37.262Z,11.90
2023-07-25T03:52:37.286Z,13.20
2023-07-25T03:53:37.238Z,13.10
2023-07-25T03:54:37.294Z,12.20
2023-07-25T03:55:37.185Z,12.30
2023-07-25T03:56:37.196Z,13.40
2023-07-25T03:57:37.191Z,12.50
2023-07-25T03:58:37.258Z,12.40
2023-07-25T03:59:37.174Z,12.50
2023-07-25T04:00:37.247Z,12.10
2023-07-25T04:01:37.158Z,12.30
2023-07-25T04:02:37.174Z,12.80
2023-07-25T04:03:37.331Z,12.30
2023-07-25T04:04:37.216Z,11.10
2023-07-25T04:05:37.110Z,10.40
2023-07-25T04:06:37.129Z,9.70
2023-07-25T04:07:37.105Z,10.80
2023-07-25T04:08:37.138Z,11.10
2023-07-25T04:09:37.122Z,11.80
2023-07-25T04:10:37.090Z,12.20
2023-07-25T04:11:37.064Z,12.60
2023-07-25T04:12:37.071Z,11.90
2023-07-25T04:13:37.052Z,12.80
2023-07-25T04:14:37.128Z,12.80
2023-07-25T04:15:37.034Z,11.90
2023-07-25T04:16:37.139Z,13.70
2023-07-25T04:17:37.076Z,12.70
2023-07-25T04:18:37.013Z,14.50
2023-07-25T04:19:37.002Z,14.40
2023-07-25T04:20:37.057Z,12.00
2023-07-25T04:21:36.970Z,14.60
2023-07-25T04:22:37.049Z,14.70
2023-07-25T04:23:36.964Z,13.90
2023-07-25T04:24:37.032Z,14.10
2023-07-25T04:25:36.962Z,12.90
2023-07-25T04:26:37.030Z,10.60
2023-07-25T04:27:37.031Z,12.00
2023-07-25T04:28:36.930Z,13.30
2023-07-25T04:29:36.964Z,13.20
2023-07-25T04:30:36.908Z,13.50
2023-07-25T04:31:36.939Z,14.20
2023-07-25T04:32:36.994Z,14.80
2023-07-25T04:33:36.887Z,14.00
2023-07-25T04:34:37.019Z,14.20
2023-07-25T04:35:36.924Z,12.50
2023-07-25T04:36:36.913Z,11.20
2023-07-25T04:37:36.852Z,12.40
2023-07-25T04:38:36.924Z,12.20
2023-07-25T04:39:36.843Z,14.00
2023-07-25T04:40:36.836Z,13.40
2023-07-25T04:41:36.821Z,13.00
2023-07-25T04:42:36.842Z,13.50
2023-07-25T04:43:36.839Z,13.70
2023-07-25T04:44:36.817Z,13.60
2023-07-25T04:45:36.806Z,13.20
2023-07-25T04:46:36.839Z,12.70
2023-07-25T04:47:36.815Z,13.10
2023-07-25T04:48:36.807Z,12.80
2023-07-25T04:49:36.798Z,12.20
2023-07-25T04:50:36.745Z,11.50
2023-07-25T04:51:36.773Z,12.90
2023-07-25T04:52:36.836Z,11.70
2023-07-25T04:53:36.729Z,12.00
2023-07-25T04:54:36.710Z,12.20
2023-07-25T04:55:36.880Z,11.60
2023-07-25T04:56:36.773Z,12.10
2023-07-25T04:57:36.707Z,10.70
2023-07-25T04:58:36.677Z,11.90
2023-07-25T04:59:36.675Z,10.90
2023-07-25T05:00:36.714Z,11.50
2023-07-25T05:01:36.698Z,11.30
2023-07-25T05:02:36.670Z,10.90
2023-07-25T05:03:36.681Z,11.70
2023-07-25T05:04:36.629Z,11.90
2023-07-25T05:05:36.673Z,11.90
2023-07-25T05:06:36.635Z,11.40
2023-07-25T05:07:36.712Z,11.10
2023-07-25T05:08:36.591Z,11.60
2023-07-25T05:09:36.669Z,11.40
2023-07-25T05:10:36.588Z,10.80
2023-07-25T05:11:36.580Z,11.90
2023-07-25T05:12:36.623Z,10.50
2023-07-25T05:13:36.556Z,10.40
2023-07-25T05:14:36.535Z,11.70
2023-07-25T05:15:36.542Z,11.60
2023-07-25T05:16:36.560Z,10.70
2023-07-25T05:17:36.535Z,9.40
2023-07-25T05:18:36.509Z,10.00
2023-07-25T05:19:36.491Z,10.70
2023-07-25T05:20:36.486Z,11.60
2023-07-25T05:21:36.476Z,11.60
2023-07-25T05:22:36.515Z,11.00
2023-07-25T05:23:36.461Z,12.60
2023-07-25T05:24:36.492Z,10.60
2023-07-25T05:25:36.452Z,11.70
2023-07-25T05:26:36.450Z,11.30
2023-07-25T05:27:36.433Z,11.20
2023-07-25T05:28:36.495Z,10.90
2023-07-25T05:29:36.420Z,11.40
2023-07-25T05:30:36.425Z,11.90
2023-07-25T05:31:36.432Z,11.50
2023-07-25T05:32:37.706Z,11.30
2023-07-25T05:33:36.391Z,10.50
2023-07-25T05:34:36.395Z,10.80
2023-07-25T05:35:36.361Z,11.10
2023-07-25T05:36:37.322Z,10.90
2023-07-25T05:37:36.399Z,10.10
2023-07-25T05:38:36.330Z,11.00
2023-07-25T05:39:36.550Z,10.60
2023-07-25T05:40:36.957Z,10.40
2023-07-25T05:41:36.312Z,10.10
2023-07-25T05:42:36.291Z,10.10
2023-07-25T05:43:36.328Z,10.70
2023-07-25T05:44:36.286Z,11.50
2023-07-25T05:45:36.312Z,10.70
2023-07-25T05:46:37.756Z,11.70
2023-07-25T05:47:36.282Z,11.90
2023-07-25T05:48:36.321Z,11.10
2023-07-25T05:49:36.290Z,11.40
2023-07-25T05:50:36.222Z,12.10
2023-07-25T05:51:36.404Z,11.40
2023-07-25T05:52:36.212Z,11.80
2023-07-25T05:53:36.216Z,11.50
2023-07-25T05:54:36.198Z,11.60
2023-07-25T05:55:36.410Z,11.70
2023-07-25T05:56:36.254Z,11.30
2023-07-25T05:57:36.182Z,11.70
2023-07-25T05:58:36.157Z,11.90
2023-07-25T05:59:36.162Z,11.60
2023-07-25T06:00:36.184Z,11.40
2023-07-25T06:01:36.408Z,11.10
2023-07-25T06:02:36.713Z,11.70
2023-07-25T06:03:36.189Z,11.70
2023-07-25T06:04:36.126Z,10.80
2023-07-25T06:05:36.112Z,10.90
2023-07-25T06:06:36.141Z,10.90
2023-07-25T06:07:36.084Z,10.60
2023-07-25T06:08:36.062Z,9.80
2023-07-25T06:09:36.766Z,9.80
2023-07-25T06:10:36.035Z,10.20
2023-07-25T06:11:36.037Z,10.60
2023-07-25T06:12:36.077Z,11.20
2023-07-25T06:13:37.211Z,10.80
2023-07-25T06:14:36.877Z,11.90
2023-07-25T06:15:57.851Z,10.30
2023-07-25T06:16:39.392Z,10.90
2023-07-25T06:17:40.291Z,9.80
2023-07-25T06:18:45.272Z,10.30
2023-07-25T06:19:45.785Z,10.90
2023-07-25T06:20:37.901Z,10.40
2023-07-25T06:21:37.765Z,10.40
2023-07-25T06:22:40.892Z,10.80
2023-07-25T06:24:00.267Z,10.20
2023-07-25T06:24:38.846Z,10.50
2023-07-25T06:25:36.762Z,11.30
2023-07-25T06:26:38.036Z,11.00
2023-07-25T06:27:37.064Z,11.50
2023-07-25T06:28:36.823Z,11.10
2023-07-25T06:29:40.835Z,11.00
2023-07-25T06:30:35.865Z,11.40
2023-07-25T06:31:35.952Z,11.30
2023-07-25T06:32:35.916Z,11.70
2023-07-25T06:33:35.871Z,10.80
2023-07-25T06:34:35.934Z,11.50
2023-07-25T06:35:35.876Z,11.70
2023-07-25T06:36:35.832Z,10.90
2023-07-25T06:37:35.839Z,11.40
2023-07-25T06:38:35.819Z,11.40
2023-07-25T06:39:35.818Z,11.20
2023-07-25T06:40:35.794Z,11.80
2023-07-25T06:41:35.817Z,11.50
2023-07-25T06:42:35.764Z,11.80
2023-07-25T06:43:35.756Z,11.50
2023-07-25T06:44:36.890Z,12.10
2023-07-25T06:45:35.759Z,11.90
2023-07-25T06:46:35.736Z,11.50
2023-07-25T06:47:36.491Z,11.50
2023-07-25T06:48:35.699Z,10.60
2023-07-25T06:49:35.718Z,11.60
2023-07-25T06:50:35.777Z,11.10
2023-07-25T06:51:35.700Z,10.30
2023-07-25T06:52:36.338Z,11.60
2023-07-25T06:53:35.664Z,11.40
2023-07-25T06:54:35.830Z,11.10
2023-07-25T06:55:35.672Z,10.90
2023-07-25T06:56:35.643Z,10.50
2023-07-25T06:57:35.649Z,10.90
2023-07-25T06:58:35.655Z,11.00
2023-07-25T06:59:35.679Z,11.80
2023-07-25T07:00:35.635Z,11.60
2023-07-25T07:01:35.613Z,11.80
2023-07-25T07:02:35.818Z,12.20
2023-07-25T07:03:35.678Z,11.50
2023-07-25T07:04:36.353Z,12.10
2023-07-25T07:05:37.407Z,12.50
2023-07-25T07:06:35.583Z,13.00
2023-07-25T07:07:35.555Z,12.30
2023-07-25T07:08:35.531Z,12.40
2023-07-25T07:09:36.359Z,12.80
2023-07-25T07:10:35.518Z,12.40
2023-07-25T07:11:35.515Z,12.10
2023-07-25T07:12:35.525Z,11.90
2023-07-25T07:13:35.508Z,12.00
2023-07-25T07:14:35.492Z,11.60
2023-07-25T07:15:35.612Z,11.10
2023-07-25T07:16:35.526Z,11.40
2023-07-25T07:17:35.534Z,11.00
2023-07-25T07:18:35.615Z,10.90
2023-07-25T07:19:35.462Z,10.30
2023-07-25T07:20:35.460Z,10.80
2023-07-25T07:21:35.441Z,10.70
2023-07-25T07:22:35.426Z,10.80
2023-07-25T07:23:35.569Z,11.20
2023-07-25T07:24:35.492Z,11.30
2023-07-25T07:25:35.412Z,11.00
2023-07-25T07:26:35.395Z,10.40
2023-07-25T07:27:35.399Z,12.90
2023-07-25T07:28:35.369Z,11.70
2023-07-25T07:29:36.729Z,11.90
2023-07-25T07:30:35.422Z,10.40
2023-07-25T07:31:35.479Z,10.50
2023-07-25T07:32:35.438Z,9.40
2023-07-25T07:33:35.839Z,9.80
2023-07-25T07:34:35.328Z,10.00
2023-07-25T07:35:35.364Z,9.50
2023-07-25T07:36:35.311Z,64.00
2023-07-25T07:37:35.313Z,38.90
2023-07-25T07:38:35.321Z,17.10
2023-07-25T07:39:35.291Z,27.70
2023-07-25T07:40:35.270Z,9.20
2023-07-25T07:41:35.293Z,9.30
2023-07-25T07:42:35.256Z,8.70
2023-07-25T07:43:35.259Z,8.70
2023-07-25T07:44:35.286Z,9.00
2023-07-25T07:45:35.244Z,8.70
2023-07-25T07:46:35.279Z,8.90
2023-07-25T07:47:35.283Z,8.00
2023-07-25T07:48:35.210Z,8.30
2023-07-25T07:49:35.254Z,8.60
2023-07-25T07:50:35.281Z,8.90
2023-07-25T07:51:35.327Z,8.40
2023-07-25T07:52:42.125Z,7.60
2023-07-25T07:53:36.184Z,7.50
2023-07-25T07:54:35.163Z,6.90
2023-07-25T07:55:35.192Z,7.00
2023-07-25T07:56:35.174Z,6.80
2023-07-25T07:57:35.153Z,6.20
2023-07-25T07:58:35.127Z,6.40
2023-07-25T07:59:35.162Z,6.50
2023-07-25T08:00:35.116Z,6.00
2023-07-25T08:01:36.618Z,5.80
2023-07-25T08:02:35.153Z,5.60
2023-07-25T08:03:35.090Z,5.50
2023-07-25T08:04:35.095Z,5.40
2023-07-25T08:05:35.082Z,5.50
2023-07-25T08:06:35.052Z,6.00
2023-07-25T08:07:35.143Z,5.80
2023-07-25T08:08:35.036Z,5.80
2023-07-25T08:09:35.100Z,5.70
2023-07-25T08:10:35.020Z,5.60
2023-07-25T08:11:35.170Z,5.60
2023-07-25T08:12:35.036Z,5.80
2023-07-25T08:13:35.060Z,5.30
2023-07-25T08:14:35.000Z,5.30
2023-07-25T08:15:35.003Z,5.70
2023-07-25T08:16:35.009Z,5.50
2023-07-25T08:17:35.052Z,15.30
2023-07-25T08:18:34.991Z,23.00
2023-07-25T08:19:35.017Z,5.10
2023-07-25T08:20:34.952Z,5.80
2023-07-25T08:21:37.314Z,7.20
2023-07-25T08:22:34.932Z,6.30
2023-07-25T08:23:34.948Z,4.80
2023-07-25T08:24:34.956Z,5.60
2023-07-25T08:25:34.923Z,5.00
2023-07-25T08:26:34.895Z,5.30
2023-07-25T08:27:34.941Z,4.80
2023-07-25T08:28:34.902Z,5.00
2023-07-25T08:29:34.886Z,5.20
2023-07-25T08:30:34.862Z,5.10
2023-07-25T08:31:35.076Z,4.90
2023-07-25T08:32:34.908Z,4.80
2023-07-25T08:33:34.843Z,4.60
2023-07-25T08:34:34.823Z,4.40
2023-07-25T08:35:34.868Z,4.60
2023-07-25T08:36:34.829Z,4.60
2023-07-25T08:37:34.873Z,4.20
2023-07-25T08:38:34.805Z,4.40
2023-07-25T08:39:34.804Z,4.80
2023-07-25T08:40:34.809Z,4.60
2023-07-25T08:41:35.004Z,4.60
2023-07-25T08:42:34.795Z,4.90
2023-07-25T08:43:34.779Z,4.60
2023-07-25T08:44:34.755Z,4.60
2023-07-25T08:45:34.763Z,4.70
2023-07-25T08:46:34.956Z,4.60
2023-07-25T08:47:34.845Z,4.60
2023-07-25T08:48:34.718Z,4.50
2023-07-25T08:49:34.769Z,4.40
2023-07-25T08:50:34.709Z,4.70
2023-07-25T08:51:34.812Z,4.40
2023-07-25T08:52:34.748Z,4.30
2023-07-25T08:53:34.698Z,4.40
2023-07-25T08:54:34.672Z,4.10
2023-07-25T08:55:34.686Z,4.20
2023-07-25T08:56:34.658Z,4.00
2023-07-25T08:57:34.700Z,3.90
2023-07-25T08:58:34.639Z,3.80
2023-07-25T08:59:34.645Z,3.60
2023-07-25T09:00:34.643Z,3.50
2023-07-25T09:01:34.906Z,3.40
2023-07-25T09:02:35.005Z,3.40
2023-07-25T09:03:34.650Z,3.50
2023-07-25T09:04:34.692Z,3.30
2023-07-25T09:05:34.594Z,3.50
2023-07-25T09:06:34.613Z,3.50
2023-07-25T09:07:35.381Z,3.20
2023-07-25T09:08:34.579Z,3.20
2023-07-25T09:09:34.538Z,3.20
2023-07-25T09:10:34.583Z,3.60
2023-07-25T09:11:34.813Z,3.00
2023-07-25T09:12:34.573Z,3.00
2023-07-25T09:13:34.512Z,3.10
2023-07-25T09:14:34.526Z,3.50
2023-07-25T09:15:34.500Z,3.30
2023-07-25T09:16:34.615Z,3.80
2023-07-25T09:17:34.547Z,4.10
2023-07-25T09:18:34.581Z,4.10
2023-07-25T09:19:34.465Z,3.70
2023-07-25T09:20:34.458Z,3.40
2023-07-25T09:21:35.014Z,5.70
2023-07-25T09:22:34.469Z,3.70
2023-07-25T09:23:34.494Z,3.50
2023-07-25T09:24:34.490Z,3.90
2023-07-25T09:25:34.410Z,4.20
2023-07-25T09:26:34.416Z,4.90
2023-07-25T09:27:34.392Z,4.90
2023-07-25T09:28:34.387Z,4.80
2023-07-25T09:29:34.444Z,4.50
2023-07-25T09:30:34.386Z,3.70
2023-07-25T09:31:34.647Z,3.60
2023-07-25T09:32:34.367Z,4.60
2023-07-25T09:33:34.550Z,4.20
2023-07-25T09:34:35.301Z,4.60
2023-07-25T09:35:34.346Z,4.20
2023-07-25T09:36:34.328Z,3.90
2023-07-25T09:37:34.311Z,4.40
2023-07-25T09:38:34.301Z,4.00
2023-07-25T09:39:34.282Z,4.00
2023-07-25T09:40:34.291Z,4.50
2023-07-25T09:41:34.668Z,4.30
2023-07-25T09:42:34.261Z,4.20
2023-07-25T09:43:34.257Z,3.90
2023-07-25T09:44:34.263Z,4.40
2023-07-25T09:45:36.490Z,4.40
2023-07-25T09:46:34.241Z,4.30
2023-07-25T09:47:34.284Z,4.20
2023-07-25T09:48:34.282Z,4.60
2023-07-25T09:49:34.196Z,4.70
2023-07-25T09:50:34.204Z,5.20
2023-07-25T09:51:34.312Z,4.60
2023-07-25T09:52:34.187Z,4.70
2023-07-25T09:53:34.252Z,4.60
2023-07-25T09:54:34.162Z,4.30
2023-07-25T09:55:34.157Z,4.50
2023-07-25T09:56:35.549Z,4.60
2023-07-25T09:57:34.164Z,4.70
2023-07-25T09:58:34.174Z,4.40
2023-07-25T09:59:34.112Z,5.10
2023-07-25T10:00:34.126Z,4.60
2023-07-25T10:01:34.432Z,4.50
2023-07-25T10:02:34.142Z,4.50
2023-07-25T10:03:34.158Z,4.60
2023-07-25T10:04:34.124Z,5.00
2023-07-25T10:05:34.072Z,4.90
2023-07-25T10:06:34.918Z,12.20
2023-07-25T10:07:34.064Z,29.00
2023-07-25T10:08:34.104Z,41.00
2023-07-25T10:09:34.024Z,15.50
2023-07-25T10:10:34.146Z,9.70
2023-07-25T10:11:34.253Z,7.10
2023-07-25T10:12:34.047Z,5.80
2023-07-25T10:13:34.054Z,6.20
2023-07-25T10:14:34.005Z,5.20
2023-07-25T10:15:34.041Z,5.30
2023-07-25T10:16:33.969Z,5.50
2023-07-25T10:17:34.041Z,5.60
2023-07-25T10:18:33.968Z,5.20
2023-07-25T10:19:34.003Z,4.90
2023-07-25T10:20:33.993Z,5.60
2023-07-25T10:21:34.154Z,4.70
2023-07-25T10:22:34.080Z,4.70
2023-07-25T10:23:33.937Z,5.40
2023-07-25T10:24:34.009Z,4.70
2023-07-25T10:25:33.904Z,3.80
2023-07-25T10:26:33.897Z,3.50
2023-07-25T10:27:33.911Z,3.40
2023-07-25T10:28:34.102Z,3.60
2023-07-25T10:29:33.866Z,3.90
2023-07-25T10:30:33.866Z,4.50
2023-07-25T10:31:34.043Z,3.60
2023-07-25T10:32:33.918Z,4.40
2023-07-25T10:33:33.836Z,3.50
2023-07-25T10:34:33.949Z,3.60
2023-07-25T10:35:33.835Z,3.40
2023-07-25T10:36:33.866Z,3.20
2023-07-25T10:37:33.928Z,3.10
2023-07-25T10:38:33.843Z,3.70
2023-07-25T10:39:33.781Z,3.30
2023-07-25T10:40:41.315Z,3.50
2023-07-25T10:41:34.179Z,3.30
2023-07-25T10:42:33.774Z,3.10
2023-07-25T10:43:33.770Z,3.10
2023-07-25T10:44:33.745Z,3.40
2023-07-25T10:45:33.770Z,3.30
2023-07-25T10:46:33.878Z,3.50
2023-07-25T10:47:33.734Z,3.40
2023-07-25T10:48:33.782Z,3.40
2023-07-25T10:49:33.692Z,4.30
2023-07-25T10:50:33.698Z,3.00
2023-07-25T10:51:33.774Z,3.40
2023-07-25T10:52:33.681Z,2.90
2023-07-25T10:53:33.717Z,3.00
2023-07-25T10:54:33.674Z,3.30
2023-07-25T10:55:33.742Z,3.20
2023-07-25T10:56:33.645Z,3.20
2023-07-25T10:57:33.629Z,3.10
2023-07-25T10:58:33.630Z,3.30
2023-07-25T10:59:33.636Z,3.40
2023-07-25T11:00:33.618Z,3.70
2023-07-25T11:01:33.992Z,3.20
2023-07-25T11:02:33.665Z,3.30
2023-07-25T11:03:33.574Z,3.10
2023-07-25T11:04:33.666Z,3.10
2023-07-25T11:05:33.586Z,3.30
2023-07-25T11:06:33.570Z,3.30
2023-07-25T11:07:33.590Z,5.10
2023-07-25T11:08:33.582Z,4.10
2023-07-25T11:09:33.519Z,2.80
2023-07-25T11:10:33.566Z,3.10
2023-07-25T11:11:33.643Z,4.00
2023-07-25T11:12:33.548Z,3.60
2023-07-25T11:13:33.621Z,3.40
2023-07-25T11:14:33.488Z,3.00
2023-07-25T11:15:45.942Z,3.30
2023-07-25T11:16:34.506Z,3.10
2023-07-25T11:17:33.500Z,3.00
2023-07-25T11:18:33.519Z,3.20
2023-07-25T11:19:33.446Z,3.20
2023-07-25T11:20:33.467Z,3.40
2023-07-25T11:21:33.612Z,2.80
2023-07-25T11:22:33.442Z,3.00
2023-07-25T11:23:33.444Z,3.10
2023-07-25T11:24:33.494Z,3.20
2023-07-25T11:25:33.429Z,3.10
2023-07-25T11:26:33.451Z,3.10
2023-07-25T11:27:33.415Z,3.10
2023-07-25T11:28:33.379Z,2.90
2023-07-25T11:29:33.363Z,3.00
2023-07-25T11:30:33.416Z,3.30
2023-07-25T11:31:33.622Z,3.20
2023-07-25T11:32:33.432Z,2.70
2023-07-25T11:33:33.336Z,3.10
2023-07-25T11:34:33.449Z,3.30
2023-07-25T11:35:33.357Z,3.10
2023-07-25T11:36:33.328Z,3.10
2023-07-25T11:37:33.309Z,2.90
2023-07-25T11:38:33.318Z,3.10
2023-07-25T11:39:33.316Z,3.10
2023-07-25T11:40:33.285Z,3.60
2023-07-25T11:41:33.425Z,3.70
2023-07-25T11:42:33.266Z,3.60
2023-07-25T11:43:33.254Z,3.30
2023-07-25T11:44:33.247Z,3.20
2023-07-25T11:45:33.238Z,3.10
2023-07-25T11:46:33.283Z,3.30
2023-07-25T11:47:33.283Z,3.40
2023-07-25T11:48:33.253Z,3.00
2023-07-25T11:50:34.798Z,3.20
2023-07-25T11:51:33.358Z,3.20
2023-07-25T11:52:33.203Z,3.40
2023-07-25T11:53:33.169Z,3.30
2023-07-25T11:54:33.200Z,3.10
2023-07-25T11:55:33.168Z,3.10
2023-07-25T11:56:33.245Z,3.20
2023-07-25T11:57:33.121Z,3.40
2023-07-25T11:58:33.129Z,3.20
2023-07-25T11:59:33.114Z,3.30
2023-07-25T12:00:33.107Z,3.40
2023-07-25T12:01:33.371Z,3.20
2023-07-25T12:02:33.148Z,3.40
2023-07-25T12:03:33.107Z,3.30
2023-07-25T12:04:33.105Z,3.70
2023-07-25T12:05:33.067Z,3.30
2023-07-25T12:06:33.331Z,3.30
2023-07-25T12:07:33.053Z,3.10
2023-07-25T12:08:33.091Z,3.00
2023-07-25T12:09:33.032Z,2.80
2023-07-25T12:10:33.046Z,2.80
2023-07-25T12:11:33.294Z,3.10
2023-07-25T12:12:33.024Z,3.30
2023-07-25T12:13:33.139Z,3.40
2023-07-25T12:14:33.004Z,3.20
2023-07-25T12:15:32.987Z,3.10
2023-07-25T12:16:33.286Z,3.40
2023-07-25T12:17:33.028Z,3.30
2023-07-25T12:18:32.976Z,3.60
2023-07-25T12:19:33.006Z,3.40
2023-07-25T12:20:34.689Z,3.50
2023-07-25T12:21:32.967Z,3.30
2023-07-25T12:22:32.941Z,3.60
2023-07-25T12:23:32.945Z,3.70
2023-07-25T12:24:32.956Z,3.60
2023-07-25T12:25:32.945Z,3.70
2023-07-25T12:26:33.139Z,3.40
2023-07-25T12:27:33.030Z,3.70
2023-07-25T12:28:32.911Z,3.50
2023-07-25T12:29:32.880Z,3.60
2023-07-25T12:30:32.969Z,3.80
2023-07-25T12:31:32.859Z,3.80
2023-07-25T12:32:32.925Z,3.90
2023-07-25T12:33:33.768Z,3.90
2023-07-25T12:34:32.880Z,3.40
2023-07-25T12:35:32.822Z,3.60
2023-07-25T12:36:33.148Z,4.00
2023-07-25T12:37:32.829Z,3.80
2023-07-25T12:38:32.852Z,3.60
2023-07-25T12:39:32.790Z,3.50
2023-07-25T12:40:32.823Z,3.50
2023-07-25T12:41:32.770Z,3.70
2023-07-25T12:42:32.805Z,3.50
2023-07-25T12:43:32.828Z,4.30
2023-07-25T12:44:32.800Z,4.10
2023-07-25T12:45:32.818Z,4.60
2023-07-25T12:46:33.073Z,4.10
2023-07-25T12:47:32.751Z,3.50
2023-07-25T12:48:32.728Z,4.20
2023-07-25T12:49:32.735Z,3.30
2023-07-25T12:50:32.778Z,3.30
2023-07-25T12:51:32.882Z,3.60
2023-07-25T12:52:32.693Z,3.50
2023-07-25T12:53:32.694Z,3.80
2023-07-25T12:54:32.670Z,5.10
2023-07-25T12:55:32.664Z,4.10
2023-07-25T12:56:32.968Z,3.10
2023-07-25T12:57:32.643Z,3.40
2023-07-25T12:58:32.670Z,3.30
2023-07-25T12:59:32.656Z,3.30
2023-07-25T13:00:32.639Z,3.70
2023-07-25T13:01:32.952Z,3.10
2023-07-25T13:02:32.815Z,3.70
2023-07-25T13:03:32.840Z,2.90
2023-07-25T13:04:32.729Z,3.10
2023-07-25T13:05:32.596Z,3.20
2023-07-25T13:06:32.640Z,3.50
2023-07-25T13:07:32.630Z,3.20
2023-07-25T13:08:32.615Z,3.50
2023-07-25T13:09:32.686Z,3.00
2023-07-25T13:10:32.546Z,3.00